sensor_id;sensor_type;location;lat;lon;timestamp;noise_LAeq;noise_LA_min;noise_LA_max;noise_LA01;noise_LA95
66460;Laerm;58055;52.456;4.738;2023-06-19T00:00:01;43.95;39.10;57.77;;
66460;Laerm;58055;52.456;4.738;2023-06-19T00:00:17;46.14;38.31;55.76;;
66460;Laerm;58055;52.456;4.738;2023-06-19T00:00:27;47.95;38.82;57.44;;
66460;Laerm;58055;52.456;4.738;2023-06-19T00:00:40;48.41;38.75;65.04;;
66460;Laerm;58055;52.456;4.738;2023-06-19T00:00:50;49.77;38.36;62.55;;
66460;Laerm;58055;52.456;4.738;2023-06-19T00:01:00;46.58;40.91;57.66;;
66460;Laerm;58055;52.456;4.738;2023-06-19T00:01:11;46.77;38.53;57.99;;
66460;Laerm;58055;52.456;4.738;2023-06-19T00:01:21;45.05;37.95;54.69;;
66460;Laerm;58055;52.456;4.738;2023-06-19T00:01:31;46.79;40.95;56.04;;
66460;Laerm;58055;52.456;4.738;2023-06-19T00:01:42;47.28;38.40;58.77;;
66460;Laerm;58055;52.456;4.738;2023-06-19T00:01:52;46.45;38.32;57.10;;
66460;Laerm;58055;52.456;4.738;2023-06-19T00:02:02;43.10;37.35;53.47;;
66460;Laerm;58055;52.456;4.738;2023-06-19T00:02:13;48.21;37.15;59.86;;
66460;Laerm;58055;52.456;4.738;2023-06-19T00:02:23;51.07;38.69;65.25;;
66460;Laerm;58055;52.456;4.738;2023-06-19T00:02:33;52.01;38.62;65.62;;
66460;Laerm;58055;52.456;4.738;2023-06-19T00:02:44;57.26;45.28;68.56;;
66460;Laerm;58055;52.456;4.738;2023-06-19T00:02:54;47.62;40.87;57.25;;
66460;Laerm;58055;52.456;4.738;2023-06-19T00:03:04;43.68;38.91;55.77;;
66460;Laerm;58055;52.456;4.738;2023-06-19T00:03:15;46.19;37.26;55.26;;
66460;Laerm;58055;52.456;4.738;2023-06-19T00:03:25;51.15;39.91;59.87;;
66460;Laerm;58055;52.456;4.738;2023-06-19T00:03:36;45.23;38.10;54.07;;
66460;Laerm;58055;52.456;4.738;2023-06-19T00:03:46;44.94;38.76;54.74;;
66460;Laerm;58055;52.456;4.738;2023-06-19T00:03:56;45.72;37.75;56.13;;
66460;Laerm;58055;52.456;4.738;2023-06-19T00:04:06;52.59;41.16;64.04;;
66460;Laerm;58055;52.456;4.738;2023-06-19T00:04:17;51.55;43.31;61.43;;
66460;Laerm;58055;52.456;4.738;2023-06-19T00:04:27;48.49;41.28;59.08;;
66460;Laerm;58055;52.456;4.738;2023-06-19T00:04:38;46.97;39.45;57.32;;
66460;Laerm;58055;52.456;4.738;2023-06-19T00:04:48;44.32;38.91;51.69;;
66460;Laerm;58055;52.456;4.738;2023-06-19T00:04:58;45.97;37.80;59.73;;
66460;Laerm;58055;52.456;4.738;2023-06-19T00:05:09;43.87;37.35;52.93;;
66460;Laerm;58055;52.456;4.738;2023-06-19T00:05:20;48.95;37.68;65.22;;
66460;Laerm;58055;52.456;4.738;2023-06-19T00:05:33;47.28;39.93;54.75;;
66460;Laerm;58055;52.456;4.738;2023-06-19T00:05:43;52.42;40.91;64.07;;
66460;Laerm;58055;52.456;4.738;2023-06-19T00:05:53;47.96;39.62;63.90;;
66460;Laerm;58055;52.456;4.738;2023-06-19T00:06:05;45.81;38.91;56.37;;
66460;Laerm;58055;52.456;4.738;2023-06-19T00:06:15;50.70;40.37;58.28;;
66460;Laerm;58055;52.456;4.738;2023-06-19T00:06:25;48.87;38.79;59.71;;
66460;Laerm;58055;52.456;4.738;2023-06-19T00:06:36;46.73;39.26;56.05;;
66460;Laerm;58055;52.456;4.738;2023-06-19T00:06:46;43.91;38.40;52.01;;
66460;Laerm;58055;52.456;4.738;2023-06-19T00:06:59;48.11;38.98;59.60;;
66460;Laerm;58055;52.456;4.738;2023-06-19T00:07:09;47.24;39.86;58.82;;
66460;Laerm;58055;52.456;4.738;2023-06-19T00:07:20;49.50;39.65;62.36;;
66460;Laerm;58055;52.456;4.738;2023-06-19T00:07:32;43.74;40.31;52.46;;
66460;Laerm;58055;52.456;4.738;2023-06-19T00:07:42;51.00;37.29;66.60;;
66460;Laerm;58055;52.456;4.738;2023-06-19T00:07:52;41.41;37.16;49.41;;
66460;Laerm;58055;52.456;4.738;2023-06-19T00:08:03;41.56;38.00;52.77;;
66460;Laerm;58055;52.456;4.738;2023-06-19T00:08:15;42.18;39.52;50.19;;
66460;Laerm;58055;52.456;4.738;2023-06-19T00:08:25;42.06;39.65;48.79;;
66460;Laerm;58055;52.456;4.738;2023-06-19T00:08:36;43.81;41.02;47.60;;
66460;Laerm;58055;52.456;4.738;2023-06-19T00:08:46;45.36;41.14;60.14;;
66460;Laerm;58055;52.456;4.738;2023-06-19T00:08:56;46.56;41.69;56.74;;
66460;Laerm;58055;52.456;4.738;2023-06-19T00:09:07;44.79;40.69;50.96;;
66460;Laerm;58055;52.456;4.738;2023-06-19T00:09:17;50.57;40.70;64.00;;
66460;Laerm;58055;52.456;4.738;2023-06-19T00:09:28;42.33;39.83;52.39;;
66460;Laerm;58055;52.456;4.738;2023-06-19T00:09:38;42.43;39.65;48.14;;
66460;Laerm;58055;52.456;4.738;2023-06-19T00:09:49;48.73;41.78;57.47;;
66460;Laerm;58055;52.456;4.738;2023-06-19T00:09:59;44.65;41.89;48.73;;
66460;Laerm;58055;52.456;4.738;2023-06-19T00:10:09;48.63;41.45;61.20;;
66460;Laerm;58055;52.456;4.738;2023-06-19T00:10:20;53.60;43.03;64.76;;
66460;Laerm;58055;52.456;4.738;2023-06-19T00:10:30;55.50;43.79;69.10;;
66460;Laerm;58055;52.456;4.738;2023-06-19T00:10:40;49.54;42.12;62.35;;
66460;Laerm;58055;52.456;4.738;2023-06-19T00:10:51;46.70;42.86;54.68;;
66460;Laerm;58055;52.456;4.738;2023-06-19T00:11:01;46.05;42.54;51.28;;
66460;Laerm;58055;52.456;4.738;2023-06-19T00:11:12;44.59;41.96;54.28;;
66460;Laerm;58055;52.456;4.738;2023-06-19T00:11:22;45.29;42.20;51.23;;
66460;Laerm;58055;52.456;4.738;2023-06-19T00:11:32;44.45;41.20;52.41;;
66460;Laerm;58055;52.456;4.738;2023-06-19T00:11:43;55.20;43.33;68.26;;
66460;Laerm;58055;52.456;4.738;2023-06-19T00:11:53;54.75;43.91;67.73;;
66460;Laerm;58055;52.456;4.738;2023-06-19T00:12:03;53.20;43.94;64.23;;
66460;Laerm;58055;52.456;4.738;2023-06-19T00:12:14;51.60;44.06;62.03;;
66460;Laerm;58055;52.456;4.738;2023-06-19T00:12:24;51.84;44.13;63.15;;
66460;Laerm;58055;52.456;4.738;2023-06-19T00:12:35;52.48;42.42;62.26;;
66460;Laerm;58055;52.456;4.738;2023-06-19T00:12:45;48.29;43.19;55.70;;
66460;Laerm;58055;52.456;4.738;2023-06-19T00:12:55;49.44;42.96;59.33;;
66460;Laerm;58055;52.456;4.738;2023-06-19T00:13:06;50.35;43.78;61.65;;
66460;Laerm;58055;52.456;4.738;2023-06-19T00:13:16;54.25;44.37;65.96;;
66460;Laerm;58055;52.456;4.738;2023-06-19T00:13:26;49.69;43.94;60.94;;
66460;Laerm;58055;52.456;4.738;2023-06-19T00:13:37;46.55;42.30;56.55;;
66460;Laerm;58055;52.456;4.738;2023-06-19T00:13:47;46.77;41.64;53.63;;
66460;Laerm;58055;52.456;4.738;2023-06-19T00:13:57;49.32;40.97;59.96;;
66460;Laerm;58055;52.456;4.738;2023-06-19T00:14:08;46.37;40.53;54.83;;
66460;Laerm;58055;52.456;4.738;2023-06-19T00:14:18;46.44;39.81;53.98;;
66460;Laerm;58055;52.456;4.738;2023-06-19T00:14:28;45.20;38.70;54.50;;
66460;Laerm;58055;52.456;4.738;2023-06-19T00:14:39;43.96;38.93;54.71;;
66460;Laerm;58055;52.456;4.738;2023-06-19T00:14:49;44.71;39.15;54.19;;
66460;Laerm;58055;52.456;4.738;2023-06-19T00:14:59;45.93;39.35;57.92;;
66460;Laerm;58055;52.456;4.738;2023-06-19T00:15:10;44.20;39.76;54.74;;
66460;Laerm;58055;52.456;4.738;2023-06-19T00:15:20;43.78;39.88;50.91;;
66460;Laerm;58055;52.456;4.738;2023-06-19T00:15:31;42.15;39.31;48.88;;
66460;Laerm;58055;52.456;4.738;2023-06-19T00:15:41;42.38;40.00;48.39;;
66460;Laerm;58055;52.456;4.738;2023-06-19T00:15:52;42.42;40.53;46.53;;
66460;Laerm;58055;52.456;4.738;2023-06-19T00:16:02;45.07;39.29;53.51;;
66460;Laerm;58055;52.456;4.738;2023-06-19T00:16:12;45.64;40.08;56.03;;
66460;Laerm;58055;52.456;4.738;2023-06-19T00:16:23;42.73;38.26;55.13;;
66460;Laerm;58055;52.456;4.738;2023-06-19T00:16:35;43.18;37.75;53.56;;
66460;Laerm;58055;52.456;4.738;2023-06-19T00:16:45;42.22;36.97;54.69;;
66460;Laerm;58055;52.456;4.738;2023-06-19T00:16:55;38.51;36.45;45.98;;
66460;Laerm;58055;52.456;4.738;2023-06-19T00:17:06;39.11;37.12;46.20;;
66460;Laerm;58055;52.456;4.738;2023-06-19T00:17:16;48.26;39.74;59.71;;
66460;Laerm;58055;52.456;4.738;2023-06-19T00:17:27;44.26;39.82;57.23;;
66460;Laerm;58055;52.456;4.738;2023-06-19T00:17:37;45.02;39.78;54.51;;
66460;Laerm;58055;52.456;4.738;2023-06-19T00:17:48;43.06;37.95;53.15;;
66460;Laerm;58055;52.456;4.738;2023-06-19T00:17:58;39.75;36.81;47.86;;
66460;Laerm;58055;52.456;4.738;2023-06-19T00:18:09;39.92;37.00;52.98;;
66460;Laerm;58055;52.456;4.738;2023-06-19T00:18:20;42.37;36.12;55.91;;
66460;Laerm;58055;52.456;4.738;2023-06-19T00:18:31;42.53;36.65;57.11;;
66460;Laerm;58055;52.456;4.738;2023-06-19T00:18:49;43.91;36.84;59.37;;
66460;Laerm;58055;52.456;4.738;2023-06-19T00:19:00;42.53;37.67;52.42;;
66460;Laerm;58055;52.456;4.738;2023-06-19T00:19:13;40.55;37.07;48.54;;
66460;Laerm;58055;52.456;4.738;2023-06-19T00:19:23;41.33;37.25;53.31;;
66460;Laerm;58055;52.456;4.738;2023-06-19T00:19:33;43.28;36.51;52.64;;
66460;Laerm;58055;52.456;4.738;2023-06-19T00:19:46;46.81;37.16;55.05;;
66460;Laerm;58055;52.456;4.738;2023-06-19T00:19:58;43.25;35.86;52.00;;
66460;Laerm;58055;52.456;4.738;2023-06-19T00:20:09;43.32;36.69;53.43;;
66460;Laerm;58055;52.456;4.738;2023-06-19T00:20:19;47.57;37.59;56.72;;
66460;Laerm;58055;52.456;4.738;2023-06-19T00:20:29;47.50;37.64;56.48;;
66460;Laerm;58055;52.456;4.738;2023-06-19T00:20:40;46.53;37.76;56.54;;
66460;Laerm;58055;52.456;4.738;2023-06-19T00:20:50;42.67;36.16;50.07;;
66460;Laerm;58055;52.456;4.738;2023-06-19T00:21:00;43.73;37.85;53.71;;
66460;Laerm;58055;52.456;4.738;2023-06-19T00:21:11;44.47;37.99;59.13;;
66460;Laerm;58055;52.456;4.738;2023-06-19T00:21:22;42.31;37.18;55.65;;
66460;Laerm;58055;52.456;4.738;2023-06-19T00:21:34;41.41;37.30;53.69;;
66460;Laerm;58055;52.456;4.738;2023-06-19T00:21:44;50.45;37.36;67.24;;
66460;Laerm;58055;52.456;4.738;2023-06-19T00:21:56;44.09;37.60;53.28;;
66460;Laerm;58055;52.456;4.738;2023-06-19T00:22:07;42.23;37.18;52.59;;
66460;Laerm;58055;52.456;4.738;2023-06-19T00:22:17;39.23;36.41;44.71;;
66460;Laerm;58055;52.456;4.738;2023-06-19T00:22:27;43.66;36.75;57.75;;
66460;Laerm;58055;52.456;4.738;2023-06-19T00:22:38;44.45;37.60;57.79;;
66460;Laerm;58055;52.456;4.738;2023-06-19T00:22:48;42.32;38.67;53.41;;
66460;Laerm;58055;52.456;4.738;2023-06-19T00:23:01;45.18;39.77;57.17;;
66460;Laerm;58055;52.456;4.738;2023-06-19T00:23:12;51.17;41.66;65.15;;
66460;Laerm;58055;52.456;4.738;2023-06-19T00:23:24;52.78;41.90;67.48;;
66460;Laerm;58055;52.456;4.738;2023-06-19T00:23:34;46.69;39.46;57.24;;
66460;Laerm;58055;52.456;4.738;2023-06-19T00:23:45;47.13;39.61;62.81;;
66460;Laerm;58055;52.456;4.738;2023-06-19T00:23:55;54.20;41.99;67.94;;
66460;Laerm;58055;52.456;4.738;2023-06-19T00:24:05;46.23;40.69;56.65;;
66460;Laerm;58055;52.456;4.738;2023-06-19T00:24:16;42.54;40.34;47.41;;
66460;Laerm;58055;52.456;4.738;2023-06-19T00:24:26;48.26;40.36;62.39;;
66460;Laerm;58055;52.456;4.738;2023-06-19T00:24:36;46.72;40.48;56.98;;
66460;Laerm;58055;52.456;4.738;2023-06-19T00:24:47;45.34;40.34;58.24;;
66460;Laerm;58055;52.456;4.738;2023-06-19T00:24:57;46.13;42.01;53.56;;
66460;Laerm;58055;52.456;4.738;2023-06-19T00:25:07;46.43;41.58;52.36;;
66460;Laerm;58055;52.456;4.738;2023-06-19T00:25:18;50.73;43.28;58.89;;
66460;Laerm;58055;52.456;4.738;2023-06-19T00:25:29;52.36;43.68;62.14;;
66460;Laerm;58055;52.456;4.738;2023-06-19T00:25:40;49.12;40.20;57.11;;
66460;Laerm;58055;52.456;4.738;2023-06-19T00:25:50;51.74;40.37;65.39;;
66460;Laerm;58055;52.456;4.738;2023-06-19T00:26:00;49.62;39.25;63.73;;
66460;Laerm;58055;52.456;4.738;2023-06-19T00:26:11;46.43;39.40;55.66;;
66460;Laerm;58055;52.456;4.738;2023-06-19T00:26:24;44.49;39.19;53.82;;
66460;Laerm;58055;52.456;4.738;2023-06-19T00:26:35;46.02;39.77;58.57;;
66460;Laerm;58055;52.456;4.738;2023-06-19T00:26:45;47.19;37.86;59.38;;
66460;Laerm;58055;52.456;4.738;2023-06-19T00:26:56;46.31;38.82;53.47;;
66460;Laerm;58055;52.456;4.738;2023-06-19T00:27:06;51.51;39.66;58.49;;
66460;Laerm;58055;52.456;4.738;2023-06-19T00:27:16;54.23;43.08;68.24;;
66460;Laerm;58055;52.456;4.738;2023-06-19T00:27:27;52.46;42.51;61.03;;
66460;Laerm;58055;52.456;4.738;2023-06-19T00:27:37;52.31;40.67;63.84;;
66460;Laerm;58055;52.456;4.738;2023-06-19T00:27:47;56.45;41.13;67.77;;
66460;Laerm;58055;52.456;4.738;2023-06-19T00:27:58;54.38;41.99;67.11;;
66460;Laerm;58055;52.456;4.738;2023-06-19T00:28:08;52.38;41.38;62.32;;
66460;Laerm;58055;52.456;4.738;2023-06-19T00:28:23;48.70;40.62;57.55;;
66460;Laerm;58055;52.456;4.738;2023-06-19T00:28:34;53.55;41.64;65.75;;
66460;Laerm;58055;52.456;4.738;2023-06-19T00:28:44;55.77;42.60;65.59;;
66460;Laerm;58055;52.456;4.738;2023-06-19T00:28:55;50.87;43.21;62.81;;
66460;Laerm;58055;52.456;4.738;2023-06-19T00:29:06;45.24;42.13;50.16;;
66460;Laerm;58055;52.456;4.738;2023-06-19T00:29:17;45.80;42.92;54.52;;
66460;Laerm;58055;52.456;4.738;2023-06-19T00:29:27;47.09;45.00;52.13;;
66460;Laerm;58055;52.456;4.738;2023-06-19T00:29:38;49.81;41.83;59.65;;
66460;Laerm;58055;52.456;4.738;2023-06-19T00:29:48;47.19;41.69;57.28;;
66460;Laerm;58055;52.456;4.738;2023-06-19T00:29:59;44.44;42.25;47.49;;
66460;Laerm;58055;52.456;4.738;2023-06-19T00:30:12;48.67;42.37;56.56;;
66460;Laerm;58055;52.456;4.738;2023-06-19T00:30:22;50.48;42.99;62.36;;
66460;Laerm;58055;52.456;4.738;2023-06-19T00:30:33;47.85;42.61;56.76;;
66460;Laerm;58055;52.456;4.738;2023-06-19T00:30:43;48.10;41.97;58.09;;
66460;Laerm;58055;52.456;4.738;2023-06-19T00:30:54;45.59;40.26;53.58;;
66460;Laerm;58055;52.456;4.738;2023-06-19T00:31:05;47.51;40.51;55.23;;
66460;Laerm;58055;52.456;4.738;2023-06-19T00:31:17;48.49;42.69;55.31;;
66460;Laerm;58055;52.456;4.738;2023-06-19T00:31:28;46.45;39.96;53.21;;
66460;Laerm;58055;52.456;4.738;2023-06-19T00:31:39;44.56;39.70;53.34;;
66460;Laerm;58055;52.456;4.738;2023-06-19T00:31:49;47.50;39.97;57.85;;
66460;Laerm;58055;52.456;4.738;2023-06-19T00:32:00;49.70;39.91;58.63;;
66460;Laerm;58055;52.456;4.738;2023-06-19T00:32:10;47.44;40.27;56.91;;
66460;Laerm;58055;52.456;4.738;2023-06-19T00:32:21;45.12;40.46;53.92;;
66460;Laerm;58055;52.456;4.738;2023-06-19T00:32:31;47.27;43.59;51.79;;
66460;Laerm;58055;52.456;4.738;2023-06-19T00:32:41;48.34;44.40;55.77;;
66460;Laerm;58055;52.456;4.738;2023-06-19T00:32:59;46.57;41.66;53.44;;
66460;Laerm;58055;52.456;4.738;2023-06-19T00:33:12;44.90;40.62;54.93;;
66460;Laerm;58055;52.456;4.738;2023-06-19T00:33:22;45.59;40.40;52.24;;
66460;Laerm;58055;52.456;4.738;2023-06-19T00:33:33;48.00;44.69;53.09;;
66460;Laerm;58055;52.456;4.738;2023-06-19T00:33:43;48.78;44.47;56.10;;
66460;Laerm;58055;52.456;4.738;2023-06-19T00:33:54;50.48;46.11;56.63;;
66460;Laerm;58055;52.456;4.738;2023-06-19T00:34:04;51.70;47.31;59.41;;
66460;Laerm;58055;52.456;4.738;2023-06-19T00:34:15;52.02;47.78;57.71;;
66460;Laerm;58055;52.456;4.738;2023-06-19T00:34:25;54.74;50.90;58.66;;
66460;Laerm;58055;52.456;4.738;2023-06-19T00:34:36;54.01;51.78;56.76;;
66460;Laerm;58055;52.456;4.738;2023-06-19T00:34:47;52.93;50.87;54.75;;
66460;Laerm;58055;52.456;4.738;2023-06-19T00:34:57;51.06;49.09;53.61;;
66460;Laerm;58055;52.456;4.738;2023-06-19T00:35:07;49.77;46.87;53.62;;
66460;Laerm;58055;52.456;4.738;2023-06-19T00:35:18;49.27;46.89;55.11;;
66460;Laerm;58055;52.456;4.738;2023-06-19T00:35:28;52.18;48.59;59.51;;
66460;Laerm;58055;52.456;4.738;2023-06-19T00:35:38;51.27;49.57;54.71;;
66460;Laerm;58055;52.456;4.738;2023-06-19T00:35:52;52.01;49.45;56.03;;
66460;Laerm;58055;52.456;4.738;2023-06-19T00:36:02;50.89;48.12;55.62;;
66460;Laerm;58055;52.456;4.738;2023-06-19T00:36:18;51.24;48.76;53.52;;
66460;Laerm;58055;52.456;4.738;2023-06-19T00:36:30;51.44;49.47;54.26;;
66460;Laerm;58055;52.456;4.738;2023-06-19T00:36:40;51.92;49.42;55.76;;
66460;Laerm;58055;52.456;4.738;2023-06-19T00:36:51;52.06;48.98;57.69;;
66460;Laerm;58055;52.456;4.738;2023-06-19T00:37:06;50.88;48.11;55.02;;
66460;Laerm;58055;52.456;4.738;2023-06-19T00:37:16;48.39;46.25;54.28;;
66460;Laerm;58055;52.456;4.738;2023-06-19T00:37:27;47.64;45.07;52.93;;
66460;Laerm;58055;52.456;4.738;2023-06-19T00:37:42;49.11;43.98;59.84;;
66460;Laerm;58055;52.456;4.738;2023-06-19T00:37:55;54.59;43.63;72.74;;
66460;Laerm;58055;52.456;4.738;2023-06-19T00:38:05;52.30;44.84;66.64;;
66460;Laerm;58055;52.456;4.738;2023-06-19T00:38:15;48.58;44.93;54.78;;
66460;Laerm;58055;52.456;4.738;2023-06-19T00:38:26;47.16;43.86;55.53;;
66460;Laerm;58055;52.456;4.738;2023-06-19T00:38:36;48.64;43.02;59.88;;
66460;Laerm;58055;52.456;4.738;2023-06-19T00:38:47;44.32;41.26;51.28;;
66460;Laerm;58055;52.456;4.738;2023-06-19T00:38:58;42.28;40.10;48.98;;
66460;Laerm;58055;52.456;4.738;2023-06-19T00:39:08;45.11;41.98;48.16;;
66460;Laerm;58055;52.456;4.738;2023-06-19T00:39:18;43.60;40.99;48.09;;
66460;Laerm;58055;52.456;4.738;2023-06-19T00:39:29;43.61;40.51;47.72;;
66460;Laerm;58055;52.456;4.738;2023-06-19T00:39:39;43.25;39.58;48.76;;
66460;Laerm;58055;52.456;4.738;2023-06-19T00:39:50;43.04;39.46;50.04;;
66460;Laerm;58055;52.456;4.738;2023-06-19T00:40:01;41.04;39.24;46.76;;
66460;Laerm;58055;52.456;4.738;2023-06-19T00:40:16;40.35;38.74;45.05;;
66460;Laerm;58055;52.456;4.738;2023-06-19T00:40:30;40.11;38.21;43.91;;
66460;Laerm;58055;52.456;4.738;2023-06-19T00:40:41;40.42;38.99;44.87;;
66460;Laerm;58055;52.456;4.738;2023-06-19T00:40:51;40.72;37.95;43.21;;
66460;Laerm;58055;52.456;4.738;2023-06-19T00:41:02;38.31;36.80;41.95;;
66460;Laerm;58055;52.456;4.738;2023-06-19T00:41:12;37.75;35.96;40.47;;
66460;Laerm;58055;52.456;4.738;2023-06-19T00:41:23;39.20;37.38;43.94;;
66460;Laerm;58055;52.456;4.738;2023-06-19T00:41:35;39.91;37.29;48.84;;
66460;Laerm;58055;52.456;4.738;2023-06-19T00:41:45;45.68;38.06;55.41;;
66460;Laerm;58055;52.456;4.738;2023-06-19T00:41:58;45.35;37.27;54.65;;
66460;Laerm;58055;52.456;4.738;2023-06-19T00:42:08;44.16;37.49;51.70;;
66460;Laerm;58055;52.456;4.738;2023-06-19T00:42:18;43.12;37.96;49.99;;
66460;Laerm;58055;52.456;4.738;2023-06-19T00:42:29;42.46;38.10;48.52;;
66460;Laerm;58055;52.456;4.738;2023-06-19T00:42:39;42.74;37.42;49.51;;
66460;Laerm;58055;52.456;4.738;2023-06-19T00:42:49;45.07;38.25;50.85;;
66460;Laerm;58055;52.456;4.738;2023-06-19T00:42:59;45.68;42.76;50.50;;
66460;Laerm;58055;52.456;4.738;2023-06-19T00:43:10;45.65;41.07;50.65;;
66460;Laerm;58055;52.456;4.738;2023-06-19T00:43:20;45.78;41.17;52.63;;
66460;Laerm;58055;52.456;4.738;2023-06-19T00:43:31;47.69;41.80;55.74;;
66460;Laerm;58055;52.456;4.738;2023-06-19T00:43:41;45.07;39.57;53.05;;
66460;Laerm;58055;52.456;4.738;2023-06-19T00:43:51;46.06;41.21;53.25;;
66460;Laerm;58055;52.456;4.738;2023-06-19T00:44:04;45.97;41.80;52.10;;
66460;Laerm;58055;52.456;4.738;2023-06-19T00:44:14;47.27;43.48;54.33;;
66460;Laerm;58055;52.456;4.738;2023-06-19T00:44:24;44.74;41.14;50.05;;
66460;Laerm;58055;52.456;4.738;2023-06-19T00:44:35;45.02;39.46;52.07;;
66460;Laerm;58055;52.456;4.738;2023-06-19T00:44:45;45.27;38.79;52.90;;
66460;Laerm;58055;52.456;4.738;2023-06-19T00:44:55;45.48;38.97;52.82;;
66460;Laerm;58055;52.456;4.738;2023-06-19T00:45:06;45.65;38.57;54.72;;
66460;Laerm;58055;52.456;4.738;2023-06-19T00:45:16;43.75;38.29;51.05;;
66460;Laerm;58055;52.456;4.738;2023-06-19T00:45:26;43.97;37.71;51.10;;
66460;Laerm;58055;52.456;4.738;2023-06-19T00:45:37;43.08;38.13;50.15;;
66460;Laerm;58055;52.456;4.738;2023-06-19T00:45:47;46.48;40.40;54.04;;
66460;Laerm;58055;52.456;4.738;2023-06-19T00:45:58;45.20;39.74;52.46;;
66460;Laerm;58055;52.456;4.738;2023-06-19T00:46:09;45.13;38.85;53.08;;
66460;Laerm;58055;52.456;4.738;2023-06-19T00:46:20;45.78;40.03;54.10;;
66460;Laerm;58055;52.456;4.738;2023-06-19T00:46:31;46.88;40.68;55.00;;
66460;Laerm;58055;52.456;4.738;2023-06-19T00:46:41;45.87;40.57;54.04;;
66460;Laerm;58055;52.456;4.738;2023-06-19T00:46:57;47.30;40.41;55.45;;
66460;Laerm;58055;52.456;4.738;2023-06-19T00:47:07;46.43;40.12;55.43;;
66460;Laerm;58055;52.456;4.738;2023-06-19T00:47:17;44.30;39.40;53.79;;
66460;Laerm;58055;52.456;4.738;2023-06-19T00:47:28;44.36;39.06;52.15;;
66460;Laerm;58055;52.456;4.738;2023-06-19T00:47:38;45.94;40.50;53.96;;
66460;Laerm;58055;52.456;4.738;2023-06-19T00:47:49;46.53;40.50;54.29;;
66460;Laerm;58055;52.456;4.738;2023-06-19T00:47:59;45.72;40.10;53.23;;
66460;Laerm;58055;52.456;4.738;2023-06-19T00:48:10;47.42;42.13;56.68;;
66460;Laerm;58055;52.456;4.738;2023-06-19T00:48:21;47.93;40.56;54.75;;
66460;Laerm;58055;52.456;4.738;2023-06-19T00:48:32;47.75;39.75;56.09;;
66460;Laerm;58055;52.456;4.738;2023-06-19T00:48:42;45.73;40.11;56.87;;
66460;Laerm;58055;52.456;4.738;2023-06-19T00:48:53;45.13;39.80;53.66;;
66460;Laerm;58055;52.456;4.738;2023-06-19T00:49:03;46.02;40.42;55.44;;
66460;Laerm;58055;52.456;4.738;2023-06-19T00:49:14;46.55;41.38;53.13;;
66460;Laerm;58055;52.456;4.738;2023-06-19T00:49:25;45.56;38.88;53.22;;
66460;Laerm;58055;52.456;4.738;2023-06-19T00:49:35;45.33;38.66;52.20;;
66460;Laerm;58055;52.456;4.738;2023-06-19T00:49:46;44.47;36.95;52.79;;
66460;Laerm;58055;52.456;4.738;2023-06-19T00:49:56;44.07;36.30;53.22;;
66460;Laerm;58055;52.456;4.738;2023-06-19T00:50:06;44.23;37.66;53.56;;
66460;Laerm;58055;52.456;4.738;2023-06-19T00:50:17;43.90;38.03;51.36;;
66460;Laerm;58055;52.456;4.738;2023-06-19T00:50:28;42.52;37.50;49.64;;
66460;Laerm;58055;52.456;4.738;2023-06-19T00:50:40;45.11;40.00;53.69;;
66460;Laerm;58055;52.456;4.738;2023-06-19T00:50:50;45.73;38.78;53.63;;
66460;Laerm;58055;52.456;4.738;2023-06-19T00:51:00;44.44;39.27;52.97;;
66460;Laerm;58055;52.456;4.738;2023-06-19T00:51:11;44.74;40.38;52.69;;
66460;Laerm;58055;52.456;4.738;2023-06-19T00:51:21;47.49;40.77;54.03;;
66460;Laerm;58055;52.456;4.738;2023-06-19T00:51:32;51.40;42.54;58.27;;
66460;Laerm;58055;52.456;4.738;2023-06-19T00:51:42;56.13;47.92;63.93;;
66460;Laerm;58055;52.456;4.738;2023-06-19T00:51:52;58.67;50.32;65.49;;
66460;Laerm;58055;52.456;4.738;2023-06-19T00:52:03;57.45;45.24;65.21;;
66460;Laerm;58055;52.456;4.738;2023-06-19T00:52:13;50.70;44.12;59.92;;
66460;Laerm;58055;52.456;4.738;2023-06-19T00:52:24;49.10;41.80;56.47;;
66460;Laerm;58055;52.456;4.738;2023-06-19T00:52:34;46.78;41.23;52.62;;
66460;Laerm;58055;52.456;4.738;2023-06-19T00:52:45;43.24;39.85;48.05;;
66460;Laerm;58055;52.456;4.738;2023-06-19T00:52:55;41.97;37.97;46.44;;
66460;Laerm;58055;52.456;4.738;2023-06-19T00:53:05;42.73;38.42;49.37;;
66460;Laerm;58055;52.456;4.738;2023-06-19T00:53:17;41.77;37.16;47.46;;
66460;Laerm;58055;52.456;4.738;2023-06-19T00:53:29;42.54;37.39;49.29;;
66460;Laerm;58055;52.456;4.738;2023-06-19T00:53:40;43.41;40.91;48.09;;
66460;Laerm;58055;52.456;4.738;2023-06-19T00:53:51;43.67;40.89;50.33;;
66460;Laerm;58055;52.456;4.738;2023-06-19T00:54:02;44.46;40.70;47.99;;
66460;Laerm;58055;52.456;4.738;2023-06-19T00:54:12;47.32;43.17;53.68;;
66460;Laerm;58055;52.456;4.738;2023-06-19T00:54:23;45.47;42.53;53.25;;
66460;Laerm;58055;52.456;4.738;2023-06-19T00:54:33;45.19;42.96;49.38;;
66460;Laerm;58055;52.456;4.738;2023-06-19T00:54:44;44.70;41.12;50.44;;
66460;Laerm;58055;52.456;4.738;2023-06-19T00:54:54;42.83;39.56;49.03;;
66460;Laerm;58055;52.456;4.738;2023-06-19T00:55:05;42.26;39.49;46.03;;
66460;Laerm;58055;52.456;4.738;2023-06-19T00:55:17;41.58;37.30;49.47;;
66460;Laerm;58055;52.456;4.738;2023-06-19T00:55:28;40.50;36.72;45.47;;
66460;Laerm;58055;52.456;4.738;2023-06-19T00:55:39;41.47;36.39;49.65;;
66460;Laerm;58055;52.456;4.738;2023-06-19T00:55:50;41.82;37.04;48.82;;
66460;Laerm;58055;52.456;4.738;2023-06-19T00:56:01;43.08;37.69;49.83;;
66460;Laerm;58055;52.456;4.738;2023-06-19T00:56:12;44.79;41.51;47.70;;
66460;Laerm;58055;52.456;4.738;2023-06-19T00:56:22;43.36;39.76;48.74;;
66460;Laerm;58055;52.456;4.738;2023-06-19T00:56:32;46.26;41.52;51.09;;
66460;Laerm;58055;52.456;4.738;2023-06-19T00:56:44;45.60;42.30;49.86;;
66460;Laerm;58055;52.456;4.738;2023-06-19T00:56:55;43.06;39.59;48.00;;
66460;Laerm;58055;52.456;4.738;2023-06-19T00:57:06;45.53;40.67;50.81;;
66460;Laerm;58055;52.456;4.738;2023-06-19T00:57:17;49.18;43.12;58.00;;
66460;Laerm;58055;52.456;4.738;2023-06-19T00:57:28;49.17;41.45;59.68;;
66460;Laerm;58055;52.456;4.738;2023-06-19T00:57:38;47.17;41.74;62.93;;
66460;Laerm;58055;52.456;4.738;2023-06-19T00:57:49;47.05;43.26;50.54;;
66460;Laerm;58055;52.456;4.738;2023-06-19T00:58:00;47.51;42.29;54.18;;
66460;Laerm;58055;52.456;4.738;2023-06-19T00:58:11;46.12;41.82;55.32;;
66460;Laerm;58055;52.456;4.738;2023-06-19T00:58:21;46.43;43.23;53.11;;
66460;Laerm;58055;52.456;4.738;2023-06-19T00:58:32;46.92;43.21;56.70;;
66460;Laerm;58055;52.456;4.738;2023-06-19T00:58:42;54.06;44.17;63.25;;
66460;Laerm;58055;52.456;4.738;2023-06-19T00:58:52;54.89;44.92;65.83;;
66460;Laerm;58055;52.456;4.738;2023-06-19T00:59:04;47.03;44.53;55.48;;
66460;Laerm;58055;52.456;4.738;2023-06-19T00:59:17;45.65;41.35;54.30;;
66460;Laerm;58055;52.456;4.738;2023-06-19T00:59:28;51.83;43.00;62.02;;
66460;Laerm;58055;52.456;4.738;2023-06-19T00:59:39;52.05;41.48;60.46;;
66460;Laerm;58055;52.456;4.738;2023-06-19T00:59:49;46.44;42.10;54.40;;
66460;Laerm;58055;52.456;4.738;2023-06-19T01:00:03;49.95;41.66;64.27;;
66460;Laerm;58055;52.456;4.738;2023-06-19T01:00:17;46.93;41.51;58.11;;
66460;Laerm;58055;52.456;4.738;2023-06-19T01:00:28;47.89;42.79;56.66;;